createdAt,value
2023-03-02T00:09:06.313Z,19.38
2023-03-02T00:19:27.543Z,23.13
2023-03-02T00:29:48.553Z,21.00
2023-03-02T00:40:10.371Z,22.38
2023-03-02T00:50:31.805Z,24.80
2023-03-02T01:00:53.010Z,22.90
2023-03-02T01:11:24.520Z,22.30
2023-03-02T01:21:45.936Z,21.27
2023-03-02T01:32:07.497Z,19.75
2023-03-02T01:42:34.802Z,24.98
2023-03-02T01:52:56.938Z,24.38
2023-03-02T02:03:23.557Z,22.20
2023-03-02T02:13:45.333Z,25.47
2023-03-02T02:24:11.882Z,25.13
2023-03-02T02:34:50.149Z,27.43
2023-03-02T02:45:26.502Z,26.33
2023-03-02T02:55:50.742Z,27.52
2023-03-02T03:06:19.446Z,25.80
2023-03-02T03:16:43.107Z,28.85
2023-03-02T03:27:05.728Z,23.67
2023-03-02T03:37:29.895Z,25.75
2023-03-02T03:47:51.203Z,26.73
2023-03-02T03:58:12.784Z,26.13
2023-03-02T04:08:34.611Z,29.10
2023-03-02T04:18:57.189Z,27.90
2023-03-02T04:29:19.534Z,27.60
2023-03-02T04:39:42.611Z,27.75
2023-03-02T04:50:03.679Z,29.48
2023-03-02T05:00:25.340Z,27.88
2023-03-02T05:10:46.337Z,24.70
2023-03-02T05:21:07.368Z,28.27
2023-03-02T05:31:31.593Z,27.50
2023-03-02T05:41:53.752Z,24.30
2023-03-02T05:52:15.171Z,29.60
2023-03-02T06:02:39.272Z,30.85
2023-03-02T06:13:01.321Z,28.27
2023-03-02T06:23:22.320Z,28.65
2023-03-02T06:33:43.756Z,27.27
2023-03-02T06:44:05.405Z,29.08
2023-03-02T06:54:26.642Z,26.92
2023-03-02T07:04:47.649Z,31.27
2023-03-02T07:15:12.485Z,30.67
2023-03-02T07:25:33.895Z,29.33
2023-03-02T07:35:54.851Z,27.95
2023-03-02T07:46:16.547Z,31.95
2023-03-02T07:56:38.031Z,30.02
2023-03-02T08:06:59.146Z,29.98
2023-03-02T08:17:20.771Z,29.70
2023-03-02T08:27:42.249Z,31.88
2023-03-02T08:38:03.327Z,34.33
2023-03-02T08:48:25.593Z,32.53
2023-03-02T08:58:48.287Z,35.40
2023-03-02T09:09:11.340Z,33.25
2023-03-02T09:19:43.928Z,35.10
2023-03-02T09:30:06.271Z,31.67
2023-03-02T09:40:29.122Z,32.28
2023-03-02T09:51:24.213Z,30.60
2023-03-02T10:01:53.264Z,33.38
2023-03-02T10:12:35.728Z,32.30
2023-03-02T10:23:26.688Z,28.75
2023-03-02T10:33:48.267Z,32.78
2023-03-02T10:44:42.888Z,31.25
2023-03-02T10:55:07.140Z,28.85
2023-03-02T11:05:32.815Z,29.23
2023-03-02T11:15:56.969Z,27.73
2023-03-02T11:26:23.800Z,29.17
2023-03-02T11:36:59.497Z,28.27
2023-03-02T11:47:21.497Z,29.95
2023-03-02T11:57:49.786Z,26.70
2023-03-02T12:08:20.096Z,26.58
2023-03-02T12:18:47.893Z,29.42
2023-03-02T12:29:10.511Z,25.38
2023-03-02T12:39:43.331Z,25.98
2023-03-02T12:50:18.202Z,21.58
2023-03-02T13:00:39.209Z,25.17
2023-03-02T13:11:03.733Z,25.02
2023-03-02T13:21:31.235Z,21.80
2023-03-02T13:31:53.068Z,19.48
2023-03-02T13:42:26.247Z,20.20
2023-03-02T13:52:48.924Z,19.50
2023-03-02T14:03:23.175Z,20.85
2023-03-02T14:13:48.088Z,22.27
2023-03-02T14:24:09.351Z,18.45
2023-03-02T14:34:30.489Z,18.00
2023-03-02T14:44:52.288Z,21.38
2023-03-02T14:55:15.881Z,18.52
2023-03-02T15:05:37.036Z,18.00
2023-03-02T15:15:58.164Z,17.65
2023-03-02T15:26:19.704Z,18.20
2023-03-02T15:36:41.209Z,20.50
2023-03-02T15:47:02.612Z,19.17
2023-03-02T15:57:25.132Z,19.60
2023-03-02T16:07:46.028Z,18.15
2023-03-02T16:18:08.944Z,19.05
2023-03-02T16:28:30.581Z,19.48
2023-03-02T16:38:52.278Z,18.08
2023-03-02T16:49:14.035Z,18.13
2023-03-02T16:59:35.172Z,21.27
2023-03-02T17:09:56.487Z,20.25
2023-03-02T17:20:18.204Z,17.60
2023-03-02T17:30:40.310Z,19.23
2023-03-02T17:41:05.616Z,19.60
2023-03-02T17:51:28.687Z,22.67
2023-03-02T18:01:50.355Z,20.63
2023-03-02T18:12:11.391Z,21.90
2023-03-02T18:22:32.791Z,21.65
2023-03-02T18:32:54.538Z,26.77
2023-03-02T18:43:15.575Z,23.73
2023-03-02T18:53:38.371Z,23.27
2023-03-02T19:04:00.852Z,23.27
2023-03-02T19:14:22.416Z,21.88
2023-03-02T19:24:47.761Z,21.52
2023-03-02T19:35:12.463Z,25.42
2023-03-02T19:45:35.880Z,21.35
2023-03-02T19:56:04.757Z,23.40
2023-03-02T20:06:33.524Z,20.05
2023-03-02T20:16:55.271Z,25.25
2023-03-02T20:27:16.606Z,21.17
2023-03-02T20:37:38.642Z,20.15
2023-03-02T20:47:59.604Z,18.83
2023-03-02T20:58:20.867Z,21.40
2023-03-02T21:08:42.639Z,22.63
2023-03-02T21:19:06.165Z,19.45
2023-03-02T21:29:27.801Z,18.48
2023-03-02T21:39:49.730Z,19.55
2023-03-02T21:50:20.772Z,19.45
2023-03-02T22:00:45.754Z,22.27
2023-03-02T22:11:07.186Z,19.00
2023-03-02T22:21:39.161Z,24.13
2023-03-02T22:32:21.297Z,22.33
2023-03-02T22:42:42.906Z,20.70
2023-03-02T22:53:18.488Z,20.80
2023-03-02T23:03:41.700Z,20.70
2023-03-02T23:14:03.586Z,18.30
2023-03-02T23:24:25.369Z,20.65
2023-03-02T23:34:47.825Z,19.23
2023-03-02T23:45:09.776Z,22.92
2023-03-02T23:55:32.446Z,18.98
